sensor_id;sensor_type;location;lat;lon;timestamp;P1;durP1;ratioP1;P2;durP2;ratioP2
8881;SDS011;4477;48.736;9.176;2023-05-10T00:01:45;1.70;;;1.60;;
8881;SDS011;4477;48.736;9.176;2023-05-10T00:04:12;1.83;;;1.70;;
8881;SDS011;4477;48.736;9.176;2023-05-10T00:06:40;1.60;;;1.50;;
8881;SDS011;4477;48.736;9.176;2023-05-10T00:09:08;1.97;;;1.60;;
8881;SDS011;4477;48.736;9.176;2023-05-10T00:11:35;1.83;;;1.40;;
8881;SDS011;4477;48.736;9.176;2023-05-10T00:14:02;1.43;;;1.33;;
8881;SDS011;4477;48.736;9.176;2023-05-10T00:16:29;1.53;;;1.20;;
8881;SDS011;4477;48.736;9.176;2023-05-10T00:18:56;1.47;;;1.23;;
8881;SDS011;4477;48.736;9.176;2023-05-10T00:21:23;1.50;;;1.40;;
8881;SDS011;4477;48.736;9.176;2023-05-10T00:23:53;0.93;;;0.90;;
8881;SDS011;4477;48.736;9.176;2023-05-10T00:26:20;1.37;;;0.97;;
8881;SDS011;4477;48.736;9.176;2023-05-10T00:28:47;1.97;;;1.10;;
8881;SDS011;4477;48.736;9.176;2023-05-10T00:31:14;1.40;;;1.30;;
8881;SDS011;4477;48.736;9.176;2023-05-10T00:33:41;2.20;;;1.10;;
8881;SDS011;4477;48.736;9.176;2023-05-10T00:36:08;0.70;;;0.70;;
8881;SDS011;4477;48.736;9.176;2023-05-10T00:38:36;3.33;;;0.70;;
8881;SDS011;4477;48.736;9.176;2023-05-10T00:41:04;1.37;;;1.00;;
8881;SDS011;4477;48.736;9.176;2023-05-10T00:43:31;2.23;;;0.80;;
8881;SDS011;4477;48.736;9.176;2023-05-10T00:45:58;0.70;;;0.70;;
8881;SDS011;4477;48.736;9.176;2023-05-10T00:48:26;3.40;;;0.87;;
8881;SDS011;4477;48.736;9.176;2023-05-10T00:50:53;1.57;;;0.70;;
8881;SDS011;4477;48.736;9.176;2023-05-10T00:53:20;1.17;;;0.53;;
8881;SDS011;4477;48.736;9.176;2023-05-10T00:55:48;1.33;;;0.57;;
8881;SDS011;4477;48.736;9.176;2023-05-10T00:58:17;0.87;;;0.60;;
8881;SDS011;4477;48.736;9.176;2023-05-10T01:00:44;1.23;;;0.40;;
8881;SDS011;4477;48.736;9.176;2023-05-10T01:03:13;0.83;;;0.40;;
8881;SDS011;4477;48.736;9.176;2023-05-10T01:05:40;1.10;;;0.53;;
8881;SDS011;4477;48.736;9.176;2023-05-10T01:08:08;0.63;;;0.43;;
8881;SDS011;4477;48.736;9.176;2023-05-10T01:10:35;1.17;;;0.50;;
8881;SDS011;4477;48.736;9.176;2023-05-10T01:13:02;1.83;;;0.40;;
8881;SDS011;4477;48.736;9.176;2023-05-10T01:15:31;0.57;;;0.40;;
8881;SDS011;4477;48.736;9.176;2023-05-10T01:17:58;1.63;;;0.60;;
8881;SDS011;4477;48.736;9.176;2023-05-10T01:20:26;0.40;;;0.40;;
8881;SDS011;4477;48.736;9.176;2023-05-10T01:25:56;0.70;;;0.70;;
8881;SDS011;4477;48.736;9.176;2023-05-10T01:28:39;0.40;;;0.40;;
8881;SDS011;4477;48.736;9.176;2023-05-10T01:33:56;0.50;;;0.40;;
8881;SDS011;4477;48.736;9.176;2023-05-10T01:36:27;0.50;;;0.50;;
8881;SDS011;4477;48.736;9.176;2023-05-10T01:38:56;1.33;;;0.87;;
8881;SDS011;4477;48.736;9.176;2023-05-10T01:41:27;2.03;;;0.60;;
8881;SDS011;4477;48.736;9.176;2023-05-10T01:43:57;0.60;;;0.60;;
8881;SDS011;4477;48.736;9.176;2023-05-10T01:46:26;1.67;;;0.60;;
8881;SDS011;4477;48.736;9.176;2023-05-10T01:48:55;1.10;;;0.60;;
8881;SDS011;4477;48.736;9.176;2023-05-10T01:51:25;0.60;;;0.60;;
8881;SDS011;4477;48.736;9.176;2023-05-10T01:53:54;1.47;;;0.50;;
8881;SDS011;4477;48.736;9.176;2023-05-10T01:56:25;1.13;;;0.70;;
8881;SDS011;4477;48.736;9.176;2023-05-10T01:58:52;2.43;;;0.93;;
8881;SDS011;4477;48.736;9.176;2023-05-10T02:01:21;1.50;;;0.60;;
8881;SDS011;4477;48.736;9.176;2023-05-10T02:03:48;1.40;;;0.60;;
8881;SDS011;4477;48.736;9.176;2023-05-10T02:06:18;0.80;;;0.60;;
8881;SDS011;4477;48.736;9.176;2023-05-10T02:08:45;0.97;;;0.50;;
8881;SDS011;4477;48.736;9.176;2023-05-10T02:11:13;2.40;;;0.67;;
8881;SDS011;4477;48.736;9.176;2023-05-10T02:13:40;1.20;;;0.60;;
8881;SDS011;4477;48.736;9.176;2023-05-10T02:16:10;0.70;;;0.70;;
8881;SDS011;4477;48.736;9.176;2023-05-10T02:18:38;0.60;;;0.60;;
8881;SDS011;4477;48.736;9.176;2023-05-10T02:21:07;0.50;;;0.50;;
8881;SDS011;4477;48.736;9.176;2023-05-10T02:23:36;4.30;;;0.70;;
8881;SDS011;4477;48.736;9.176;2023-05-10T02:26:03;0.90;;;0.70;;
8881;SDS011;4477;48.736;9.176;2023-05-10T02:28:31;0.50;;;0.50;;
8881;SDS011;4477;48.736;9.176;2023-05-10T02:30:59;1.60;;;0.63;;
8881;SDS011;4477;48.736;9.176;2023-05-10T02:33:26;1.87;;;0.80;;
8881;SDS011;4477;48.736;9.176;2023-05-10T02:35:55;0.73;;;0.70;;
8881;SDS011;4477;48.736;9.176;2023-05-10T02:38:22;0.70;;;0.70;;
8881;SDS011;4477;48.736;9.176;2023-05-10T02:40:52;0.67;;;0.67;;
8881;SDS011;4477;48.736;9.176;2023-05-10T02:43:20;2.77;;;0.70;;
8881;SDS011;4477;48.736;9.176;2023-05-10T02:45:49;0.77;;;0.77;;
8881;SDS011;4477;48.736;9.176;2023-05-10T02:48:16;0.93;;;0.87;;
8881;SDS011;4477;48.736;9.176;2023-05-10T02:50:44;0.87;;;0.87;;
8881;SDS011;4477;48.736;9.176;2023-05-10T02:53:22;0.90;;;0.70;;
8881;SDS011;4477;48.736;9.176;2023-05-10T02:55:50;2.30;;;0.90;;
8881;SDS011;4477;48.736;9.176;2023-05-10T02:58:20;2.10;;;1.07;;
8881;SDS011;4477;48.736;9.176;2023-05-10T03:00:48;0.93;;;0.93;;
8881;SDS011;4477;48.736;9.176;2023-05-10T03:03:15;0.90;;;0.90;;
8881;SDS011;4477;48.736;9.176;2023-05-10T03:05:42;2.00;;;0.93;;
8881;SDS011;4477;48.736;9.176;2023-05-10T03:08:09;1.20;;;1.10;;
8881;SDS011;4477;48.736;9.176;2023-05-10T03:10:38;3.10;;;1.40;;
8881;SDS011;4477;48.736;9.176;2023-05-10T03:13:10;1.10;;;1.00;;
8881;SDS011;4477;48.736;9.176;2023-05-10T03:15:46;1.60;;;1.50;;
8881;SDS011;4477;48.736;9.176;2023-05-10T03:18:15;2.27;;;1.90;;
8881;SDS011;4477;48.736;9.176;2023-05-10T03:20:43;1.70;;;1.60;;
8881;SDS011;4477;48.736;9.176;2023-05-10T03:23:13;1.93;;;1.53;;
8881;SDS011;4477;48.736;9.176;2023-05-10T03:25:46;5.57;;;1.93;;
8881;SDS011;4477;48.736;9.176;2023-05-10T03:28:15;1.90;;;1.77;;
8881;SDS011;4477;48.736;9.176;2023-05-10T03:30:47;3.30;;;1.90;;
8881;SDS011;4477;48.736;9.176;2023-05-10T03:33:14;2.90;;;2.20;;
8881;SDS011;4477;48.736;9.176;2023-05-10T03:35:41;2.73;;;1.83;;
8881;SDS011;4477;48.736;9.176;2023-05-10T03:38:10;2.40;;;2.20;;
8881;SDS011;4477;48.736;9.176;2023-05-10T03:40:37;2.53;;;2.30;;
8881;SDS011;4477;48.736;9.176;2023-05-10T03:43:04;3.10;;;2.50;;
8881;SDS011;4477;48.736;9.176;2023-05-10T03:45:32;2.60;;;2.10;;
8881;SDS011;4477;48.736;9.176;2023-05-10T03:48:00;2.90;;;2.40;;
8881;SDS011;4477;48.736;9.176;2023-05-10T03:50:27;3.47;;;2.23;;
8881;SDS011;4477;48.736;9.176;2023-05-10T03:52:55;3.30;;;2.70;;
8881;SDS011;4477;48.736;9.176;2023-05-10T03:55:22;3.53;;;2.60;;
8881;SDS011;4477;48.736;9.176;2023-05-10T03:57:49;4.67;;;2.70;;
8881;SDS011;4477;48.736;9.176;2023-05-10T04:00:18;2.50;;;2.30;;
8881;SDS011;4477;48.736;9.176;2023-05-10T04:02:46;3.00;;;2.10;;
8881;SDS011;4477;48.736;9.176;2023-05-10T04:05:14;2.97;;;2.30;;
8881;SDS011;4477;48.736;9.176;2023-05-10T04:07:41;3.50;;;2.10;;
8881;SDS011;4477;48.736;9.176;2023-05-10T04:10:09;1.93;;;1.83;;
8881;SDS011;4477;48.736;9.176;2023-05-10T04:12:36;2.33;;;2.13;;
8881;SDS011;4477;48.736;9.176;2023-05-10T04:15:03;4.17;;;2.30;;
8881;SDS011;4477;48.736;9.176;2023-05-10T04:17:31;3.10;;;2.00;;
8881;SDS011;4477;48.736;9.176;2023-05-10T04:19:59;2.30;;;2.10;;
8881;SDS011;4477;48.736;9.176;2023-05-10T04:22:27;4.87;;;1.70;;
8881;SDS011;4477;48.736;9.176;2023-05-10T04:24:54;3.37;;;2.03;;
8881;SDS011;4477;48.736;9.176;2023-05-10T04:27:21;2.40;;;1.97;;
8881;SDS011;4477;48.736;9.176;2023-05-10T04:29:48;3.57;;;1.97;;
8881;SDS011;4477;48.736;9.176;2023-05-10T04:32:15;3.97;;;2.13;;
8881;SDS011;4477;48.736;9.176;2023-05-10T04:34:43;2.33;;;2.03;;
8881;SDS011;4477;48.736;9.176;2023-05-10T04:37:10;4.53;;;2.40;;
8881;SDS011;4477;48.736;9.176;2023-05-10T04:39:38;3.17;;;1.83;;
8881;SDS011;4477;48.736;9.176;2023-05-10T04:42:05;2.60;;;2.03;;
8881;SDS011;4477;48.736;9.176;2023-05-10T04:44:33;3.67;;;1.97;;
8881;SDS011;4477;48.736;9.176;2023-05-10T04:47:00;2.43;;;1.77;;
8881;SDS011;4477;48.736;9.176;2023-05-10T04:49:28;2.40;;;2.10;;
8881;SDS011;4477;48.736;9.176;2023-05-10T04:51:55;3.00;;;2.13;;
8881;SDS011;4477;48.736;9.176;2023-05-10T04:54:22;2.20;;;2.00;;
8881;SDS011;4477;48.736;9.176;2023-05-10T04:56:51;5.10;;;2.17;;
8881;SDS011;4477;48.736;9.176;2023-05-10T04:59:18;3.37;;;2.00;;
8881;SDS011;4477;48.736;9.176;2023-05-10T05:01:45;3.90;;;2.50;;
8881;SDS011;4477;48.736;9.176;2023-05-10T05:04:12;4.67;;;2.47;;
8881;SDS011;4477;48.736;9.176;2023-05-10T05:06:40;4.47;;;1.90;;
8881;SDS011;4477;48.736;9.176;2023-05-10T05:09:08;3.00;;;2.13;;
8881;SDS011;4477;48.736;9.176;2023-05-10T05:11:36;3.40;;;2.00;;
8881;SDS011;4477;48.736;9.176;2023-05-10T05:14:04;3.77;;;2.10;;
8881;SDS011;4477;48.736;9.176;2023-05-10T05:16:31;6.27;;;2.10;;
8881;SDS011;4477;48.736;9.176;2023-05-10T05:18:59;3.63;;;1.77;;
8881;SDS011;4477;48.736;9.176;2023-05-10T05:21:26;2.33;;;1.70;;
8881;SDS011;4477;48.736;9.176;2023-05-10T05:23:54;1.83;;;1.63;;
8881;SDS011;4477;48.736;9.176;2023-05-10T05:26:21;3.37;;;1.70;;
8881;SDS011;4477;48.736;9.176;2023-05-10T05:28:48;2.37;;;1.90;;
8881;SDS011;4477;48.736;9.176;2023-05-10T05:31:20;4.50;;;1.80;;
8881;SDS011;4477;48.736;9.176;2023-05-10T05:33:47;2.43;;;1.50;;
8881;SDS011;4477;48.736;9.176;2023-05-10T05:36:14;3.30;;;1.67;;
8881;SDS011;4477;48.736;9.176;2023-05-10T05:38:41;2.20;;;1.83;;
8881;SDS011;4477;48.736;9.176;2023-05-10T05:41:09;2.43;;;1.50;;
8881;SDS011;4477;48.736;9.176;2023-05-10T05:43:36;2.00;;;1.53;;
8881;SDS011;4477;48.736;9.176;2023-05-10T05:46:03;1.83;;;1.53;;
8881;SDS011;4477;48.736;9.176;2023-05-10T05:48:31;3.07;;;1.40;;
8881;SDS011;4477;48.736;9.176;2023-05-10T05:50:58;4.80;;;1.50;;
8881;SDS011;4477;48.736;9.176;2023-05-10T05:53:26;1.83;;;1.70;;
8881;SDS011;4477;48.736;9.176;2023-05-10T05:55:53;1.60;;;1.50;;
8881;SDS011;4477;48.736;9.176;2023-05-10T05:58:20;2.10;;;1.57;;
8881;SDS011;4477;48.736;9.176;2023-05-10T06:00:47;3.60;;;1.60;;
8881;SDS011;4477;48.736;9.176;2023-05-10T06:03:14;3.33;;;1.50;;
8881;SDS011;4477;48.736;9.176;2023-05-10T06:05:43;1.67;;;1.23;;
8881;SDS011;4477;48.736;9.176;2023-05-10T06:08:10;2.00;;;1.43;;
8881;SDS011;4477;48.736;9.176;2023-05-10T06:10:37;1.70;;;1.20;;
8881;SDS011;4477;48.736;9.176;2023-05-10T06:13:04;1.50;;;1.30;;
8881;SDS011;4477;48.736;9.176;2023-05-10T06:15:31;2.70;;;1.20;;
8881;SDS011;4477;48.736;9.176;2023-05-10T06:17:59;1.60;;;1.50;;
8881;SDS011;4477;48.736;9.176;2023-05-10T06:20:26;2.10;;;1.57;;
8881;SDS011;4477;48.736;9.176;2023-05-10T06:22:55;3.60;;;1.30;;
8881;SDS011;4477;48.736;9.176;2023-05-10T06:25:22;2.10;;;1.37;;
8881;SDS011;4477;48.736;9.176;2023-05-10T06:27:49;3.87;;;1.40;;
8881;SDS011;4477;48.736;9.176;2023-05-10T06:30:22;2.07;;;1.50;;
8881;SDS011;4477;48.736;9.176;2023-05-10T06:32:52;2.50;;;1.40;;
8881;SDS011;4477;48.736;9.176;2023-05-10T06:35:19;2.63;;;1.47;;
8881;SDS011;4477;48.736;9.176;2023-05-10T06:37:47;1.50;;;1.30;;
8881;SDS011;4477;48.736;9.176;2023-05-10T06:40:15;3.17;;;1.67;;
8881;SDS011;4477;48.736;9.176;2023-05-10T06:42:43;1.77;;;1.57;;
8881;SDS011;4477;48.736;9.176;2023-05-10T06:45:11;1.90;;;1.80;;
8881;SDS011;4477;48.736;9.176;2023-05-10T06:47:38;2.70;;;1.73;;
8881;SDS011;4477;48.736;9.176;2023-05-10T06:50:05;1.97;;;1.70;;
8881;SDS011;4477;48.736;9.176;2023-05-10T06:52:33;2.83;;;1.90;;
8881;SDS011;4477;48.736;9.176;2023-05-10T06:55:00;5.90;;;2.50;;
8881;SDS011;4477;48.736;9.176;2023-05-10T06:57:29;4.70;;;2.00;;
8881;SDS011;4477;48.736;9.176;2023-05-10T06:59:56;3.57;;;2.50;;
8881;SDS011;4477;48.736;9.176;2023-05-10T07:02:24;2.50;;;2.30;;
8881;SDS011;4477;48.736;9.176;2023-05-10T07:04:51;4.57;;;2.10;;
8881;SDS011;4477;48.736;9.176;2023-05-10T07:07:19;3.13;;;2.30;;
8881;SDS011;4477;48.736;9.176;2023-05-10T07:09:46;2.20;;;1.80;;
8881;SDS011;4477;48.736;9.176;2023-05-10T07:12:14;3.97;;;1.80;;
8881;SDS011;4477;48.736;9.176;2023-05-10T07:14:43;2.13;;;1.50;;
8881;SDS011;4477;48.736;9.176;2023-05-10T07:17:10;2.20;;;1.60;;
8881;SDS011;4477;48.736;9.176;2023-05-10T07:19:37;1.70;;;1.60;;
8881;SDS011;4477;48.736;9.176;2023-05-10T07:22:04;1.57;;;1.43;;
8881;SDS011;4477;48.736;9.176;2023-05-10T07:24:31;2.20;;;1.37;;
8881;SDS011;4477;48.736;9.176;2023-05-10T07:26:59;2.83;;;1.30;;
8881;SDS011;4477;48.736;9.176;2023-05-10T07:29:26;1.40;;;1.30;;
8881;SDS011;4477;48.736;9.176;2023-05-10T07:31:54;1.90;;;1.20;;
8881;SDS011;4477;48.736;9.176;2023-05-10T07:34:22;1.97;;;1.30;;
8881;SDS011;4477;48.736;9.176;2023-05-10T07:36:49;1.60;;;1.30;;
8881;SDS011;4477;48.736;9.176;2023-05-10T07:39:16;1.43;;;1.30;;
8881;SDS011;4477;48.736;9.176;2023-05-10T07:41:43;3.70;;;1.60;;
8881;SDS011;4477;48.736;9.176;2023-05-10T07:44:10;3.13;;;1.30;;
8881;SDS011;4477;48.736;9.176;2023-05-10T07:46:38;2.20;;;0.90;;
8881;SDS011;4477;48.736;9.176;2023-05-10T07:49:06;1.10;;;0.90;;
8881;SDS011;4477;48.736;9.176;2023-05-10T07:51:34;2.80;;;1.00;;
8881;SDS011;4477;48.736;9.176;2023-05-10T07:54:01;1.97;;;1.20;;
8881;SDS011;4477;48.736;9.176;2023-05-10T07:56:29;1.83;;;1.30;;
8881;SDS011;4477;48.736;9.176;2023-05-10T07:58:56;4.20;;;1.40;;
8881;SDS011;4477;48.736;9.176;2023-05-10T08:01:24;1.63;;;1.00;;
8881;SDS011;4477;48.736;9.176;2023-05-10T08:03:51;1.10;;;0.90;;
8881;SDS011;4477;48.736;9.176;2023-05-10T08:06:20;2.50;;;1.20;;
8881;SDS011;4477;48.736;9.176;2023-05-10T08:08:48;0.83;;;0.83;;
8881;SDS011;4477;48.736;9.176;2023-05-10T08:11:16;4.53;;;1.10;;
8881;SDS011;4477;48.736;9.176;2023-05-10T08:13:43;2.20;;;1.00;;
8881;SDS011;4477;48.736;9.176;2023-05-10T08:16:10;2.33;;;1.03;;
8881;SDS011;4477;48.736;9.176;2023-05-10T08:18:38;1.67;;;1.10;;
8881;SDS011;4477;48.736;9.176;2023-05-10T08:21:05;1.73;;;1.10;;
8881;SDS011;4477;48.736;9.176;2023-05-10T08:23:34;4.53;;;0.80;;
8881;SDS011;4477;48.736;9.176;2023-05-10T08:26:01;1.37;;;0.90;;
8881;SDS011;4477;48.736;9.176;2023-05-10T08:28:28;2.33;;;0.93;;
8881;SDS011;4477;48.736;9.176;2023-05-10T08:30:55;2.10;;;1.00;;
8881;SDS011;4477;48.736;9.176;2023-05-10T08:33:22;2.13;;;0.80;;
8881;SDS011;4477;48.736;9.176;2023-05-10T08:35:49;2.37;;;0.90;;
8881;SDS011;4477;48.736;9.176;2023-05-10T08:38:17;1.40;;;0.80;;
8881;SDS011;4477;48.736;9.176;2023-05-10T08:40:46;2.57;;;0.90;;
8881;SDS011;4477;48.736;9.176;2023-05-10T08:43:16;2.17;;;0.70;;
8881;SDS011;4477;48.736;9.176;2023-05-10T08:45:43;0.83;;;0.70;;
8881;SDS011;4477;48.736;9.176;2023-05-10T08:48:11;1.60;;;0.77;;
8881;SDS011;4477;48.736;9.176;2023-05-10T08:50:39;1.80;;;0.53;;
8881;SDS011;4477;48.736;9.176;2023-05-10T08:53:08;0.60;;;0.60;;
8881;SDS011;4477;48.736;9.176;2023-05-10T08:55:36;2.27;;;0.70;;
8881;SDS011;4477;48.736;9.176;2023-05-10T08:58:05;1.77;;;0.90;;
8881;SDS011;4477;48.736;9.176;2023-05-10T09:00:32;2.00;;;0.90;;
8881;SDS011;4477;48.736;9.176;2023-05-10T09:03:00;2.07;;;0.80;;
8881;SDS011;4477;48.736;9.176;2023-05-10T09:05:28;0.80;;;0.80;;
8881;SDS011;4477;48.736;9.176;2023-05-10T09:07:55;6.33;;;1.00;;
8881;SDS011;4477;48.736;9.176;2023-05-10T09:10:23;1.73;;;0.87;;
8881;SDS011;4477;48.736;9.176;2023-05-10T09:12:52;3.63;;;0.70;;
8881;SDS011;4477;48.736;9.176;2023-05-10T09:15:21;3.90;;;0.60;;
8881;SDS011;4477;48.736;9.176;2023-05-10T09:17:49;1.10;;;0.60;;
8881;SDS011;4477;48.736;9.176;2023-05-10T09:20:16;0.67;;;0.67;;
8881;SDS011;4477;48.736;9.176;2023-05-10T09:22:44;0.70;;;0.70;;
8881;SDS011;4477;48.736;9.176;2023-05-10T09:25:11;1.23;;;0.80;;
8881;SDS011;4477;48.736;9.176;2023-05-10T09:27:39;0.60;;;0.50;;
8881;SDS011;4477;48.736;9.176;2023-05-10T09:30:07;1.23;;;0.70;;
8881;SDS011;4477;48.736;9.176;2023-05-10T09:32:40;1.20;;;0.57;;
8881;SDS011;4477;48.736;9.176;2023-05-10T09:35:08;0.97;;;0.60;;
8881;SDS011;4477;48.736;9.176;2023-05-10T09:37:35;0.77;;;0.50;;
8881;SDS011;4477;48.736;9.176;2023-05-10T09:40:06;0.80;;;0.50;;
8881;SDS011;4477;48.736;9.176;2023-05-10T09:42:34;1.23;;;0.50;;
8881;SDS011;4477;48.736;9.176;2023-05-10T09:45:02;1.47;;;0.50;;
8881;SDS011;4477;48.736;9.176;2023-05-10T09:47:31;0.57;;;0.57;;
8881;SDS011;4477;48.736;9.176;2023-05-10T09:52:45;1.17;;;0.60;;
8881;SDS011;4477;48.736;9.176;2023-05-10T09:55:13;2.40;;;0.60;;
8881;SDS011;4477;48.736;9.176;2023-05-10T09:57:40;2.30;;;0.50;;
8881;SDS011;4477;48.736;9.176;2023-05-10T10:00:08;1.40;;;0.50;;
8881;SDS011;4477;48.736;9.176;2023-05-10T10:02:36;3.67;;;0.50;;
8881;SDS011;4477;48.736;9.176;2023-05-10T10:05:06;4.10;;;0.60;;
8881;SDS011;4477;48.736;9.176;2023-05-10T10:07:33;0.63;;;0.40;;
8881;SDS011;4477;48.736;9.176;2023-05-10T10:10:02;1.73;;;0.40;;
8881;SDS011;4477;48.736;9.176;2023-05-10T10:12:30;0.50;;;0.27;;
8881;SDS011;4477;48.736;9.176;2023-05-10T10:14:57;1.60;;;0.40;;
8881;SDS011;4477;48.736;9.176;2023-05-10T10:17:26;1.10;;;0.50;;
8881;SDS011;4477;48.736;9.176;2023-05-10T10:19:55;0.50;;;0.40;;
8881;SDS011;4477;48.736;9.176;2023-05-10T10:22:23;1.07;;;0.30;;
8881;SDS011;4477;48.736;9.176;2023-05-10T10:24:50;0.73;;;0.37;;
8881;SDS011;4477;48.736;9.176;2023-05-10T10:27:21;1.40;;;0.40;;
8881;SDS011;4477;48.736;9.176;2023-05-10T10:29:58;1.80;;;0.60;;
8881;SDS011;4477;48.736;9.176;2023-05-10T10:32:33;1.40;;;0.50;;
8881;SDS011;4477;48.736;9.176;2023-05-10T10:35:15;2.00;;;0.50;;
8881;SDS011;4477;48.736;9.176;2023-05-10T10:37:46;1.17;;;0.50;;
8881;SDS011;4477;48.736;9.176;2023-05-10T10:40:23;0.53;;;0.37;;
8881;SDS011;4477;48.736;9.176;2023-05-10T10:42:55;1.63;;;0.50;;
8881;SDS011;4477;48.736;9.176;2023-05-10T10:45:23;1.23;;;0.40;;
8881;SDS011;4477;48.736;9.176;2023-05-10T10:50:55;0.40;;;0.40;;
8881;SDS011;4477;48.736;9.176;2023-05-10T10:53:25;1.70;;;0.40;;
8881;SDS011;4477;48.736;9.176;2023-05-10T10:55:56;1.27;;;0.60;;
8881;SDS011;4477;48.736;9.176;2023-05-10T10:58:33;1.63;;;0.40;;
8881;SDS011;4477;48.736;9.176;2023-05-10T11:01:14;1.43;;;0.60;;
8881;SDS011;4477;48.736;9.176;2023-05-10T11:03:41;1.70;;;0.67;;
8881;SDS011;4477;48.736;9.176;2023-05-10T11:06:28;1.80;;;0.50;;
8881;SDS011;4477;48.736;9.176;2023-05-10T11:08:57;0.60;;;0.40;;
8881;SDS011;4477;48.736;9.176;2023-05-10T11:11:24;2.33;;;0.50;;
8881;SDS011;4477;48.736;9.176;2023-05-10T11:13:52;2.00;;;0.43;;
8881;SDS011;4477;48.736;9.176;2023-05-10T11:16:20;2.30;;;0.70;;
8881;SDS011;4477;48.736;9.176;2023-05-10T11:18:52;1.43;;;0.50;;
8881;SDS011;4477;48.736;9.176;2023-05-10T11:21:19;1.20;;;0.50;;
8881;SDS011;4477;48.736;9.176;2023-05-10T11:23:47;1.33;;;0.60;;
8881;SDS011;4477;48.736;9.176;2023-05-10T11:26:15;2.20;;;0.50;;
8881;SDS011;4477;48.736;9.176;2023-05-10T11:28:42;0.90;;;0.60;;
8881;SDS011;4477;48.736;9.176;2023-05-10T11:31:11;1.87;;;0.60;;
8881;SDS011;4477;48.736;9.176;2023-05-10T11:33:43;1.27;;;0.50;;
8881;SDS011;4477;48.736;9.176;2023-05-10T11:36:11;2.20;;;0.60;;
8881;SDS011;4477;48.736;9.176;2023-05-10T11:38:38;1.80;;;0.50;;
8881;SDS011;4477;48.736;9.176;2023-05-10T11:41:05;0.60;;;0.50;;
8881;SDS011;4477;48.736;9.176;2023-05-10T11:43:35;0.77;;;0.40;;
8881;SDS011;4477;48.736;9.176;2023-05-10T11:46:03;0.60;;;0.60;;
8881;SDS011;4477;48.736;9.176;2023-05-10T11:48:32;2.40;;;0.60;;
8881;SDS011;4477;48.736;9.176;2023-05-10T11:51:00;1.30;;;0.60;;
8881;SDS011;4477;48.736;9.176;2023-05-10T11:53:27;2.17;;;0.80;;
8881;SDS011;4477;48.736;9.176;2023-05-10T11:55:55;1.03;;;0.60;;
8881;SDS011;4477;48.736;9.176;2023-05-10T11:58:23;1.30;;;0.60;;
8881;SDS011;4477;48.736;9.176;2023-05-10T12:00:50;1.30;;;0.60;;
8881;SDS011;4477;48.736;9.176;2023-05-10T12:03:17;2.30;;;0.80;;
8881;SDS011;4477;48.736;9.176;2023-05-10T12:05:46;2.33;;;0.80;;
8881;SDS011;4477;48.736;9.176;2023-05-10T12:08:13;1.10;;;0.70;;
8881;SDS011;4477;48.736;9.176;2023-05-10T12:10:41;1.60;;;0.70;;
8881;SDS011;4477;48.736;9.176;2023-05-10T12:13:11;2.37;;;0.90;;
8881;SDS011;4477;48.736;9.176;2023-05-10T12:15:40;3.20;;;0.70;;
8881;SDS011;4477;48.736;9.176;2023-05-10T12:18:08;2.67;;;0.80;;
8881;SDS011;4477;48.736;9.176;2023-05-10T12:20:36;1.00;;;0.60;;
8881;SDS011;4477;48.736;9.176;2023-05-10T12:23:05;1.73;;;0.73;;
8881;SDS011;4477;48.736;9.176;2023-05-10T12:25:33;2.73;;;0.90;;
8881;SDS011;4477;48.736;9.176;2023-05-10T12:28:03;0.83;;;0.70;;
8881;SDS011;4477;48.736;9.176;2023-05-10T12:30:31;1.73;;;0.80;;
8881;SDS011;4477;48.736;9.176;2023-05-10T12:33:02;2.97;;;0.77;;
8881;SDS011;4477;48.736;9.176;2023-05-10T12:35:32;1.57;;;0.80;;
8881;SDS011;4477;48.736;9.176;2023-05-10T12:37:59;1.00;;;0.60;;
8881;SDS011;4477;48.736;9.176;2023-05-10T12:40:28;2.20;;;0.73;;
8881;SDS011;4477;48.736;9.176;2023-05-10T12:42:55;1.57;;;0.90;;
8881;SDS011;4477;48.736;9.176;2023-05-10T12:45:22;1.23;;;0.93;;
8881;SDS011;4477;48.736;9.176;2023-05-10T12:47:49;2.50;;;0.70;;
8881;SDS011;4477;48.736;9.176;2023-05-10T12:50:16;2.83;;;0.93;;
8881;SDS011;4477;48.736;9.176;2023-05-10T12:52:44;1.00;;;0.70;;
8881;SDS011;4477;48.736;9.176;2023-05-10T12:55:11;1.33;;;0.90;;
8881;SDS011;4477;48.736;9.176;2023-05-10T12:57:40;2.37;;;0.90;;
8881;SDS011;4477;48.736;9.176;2023-05-10T13:00:07;2.23;;;1.10;;
8881;SDS011;4477;48.736;9.176;2023-05-10T13:02:34;1.60;;;0.90;;
8881;SDS011;4477;48.736;9.176;2023-05-10T13:05:02;4.73;;;0.83;;
8881;SDS011;4477;48.736;9.176;2023-05-10T13:07:29;1.87;;;0.83;;
8881;SDS011;4477;48.736;9.176;2023-05-10T13:09:56;1.87;;;1.20;;
8881;SDS011;4477;48.736;9.176;2023-05-10T13:12:23;1.73;;;0.80;;
8881;SDS011;4477;48.736;9.176;2023-05-10T13:14:52;1.47;;;0.90;;
8881;SDS011;4477;48.736;9.176;2023-05-10T13:17:19;2.47;;;1.20;;
8881;SDS011;4477;48.736;9.176;2023-05-10T13:19:46;2.77;;;1.13;;
8881;SDS011;4477;48.736;9.176;2023-05-10T13:22:13;4.93;;;0.77;;
8881;SDS011;4477;48.736;9.176;2023-05-10T13:24:40;2.43;;;0.70;;
8881;SDS011;4477;48.736;9.176;2023-05-10T13:27:08;1.40;;;0.70;;
8881;SDS011;4477;48.736;9.176;2023-05-10T13:29:35;1.67;;;0.70;;
8881;SDS011;4477;48.736;9.176;2023-05-10T13:32:03;1.90;;;0.80;;
8881;SDS011;4477;48.736;9.176;2023-05-10T13:34:31;2.17;;;0.70;;
8881;SDS011;4477;48.736;9.176;2023-05-10T13:36:58;1.83;;;0.70;;
8881;SDS011;4477;48.736;9.176;2023-05-10T13:39:25;1.83;;;0.70;;
8881;SDS011;4477;48.736;9.176;2023-05-10T13:41:54;1.63;;;0.87;;
8881;SDS011;4477;48.736;9.176;2023-05-10T13:44:21;2.03;;;0.90;;
8881;SDS011;4477;48.736;9.176;2023-05-10T13:46:49;2.03;;;0.80;;
8881;SDS011;4477;48.736;9.176;2023-05-10T13:49:17;1.70;;;1.00;;
8881;SDS011;4477;48.736;9.176;2023-05-10T13:51:44;2.23;;;1.00;;
8881;SDS011;4477;48.736;9.176;2023-05-10T13:54:11;1.43;;;1.10;;
8881;SDS011;4477;48.736;9.176;2023-05-10T13:56:39;4.33;;;0.90;;
8881;SDS011;4477;48.736;9.176;2023-05-10T13:59:07;2.53;;;0.70;;
8881;SDS011;4477;48.736;9.176;2023-05-10T14:01:34;1.40;;;0.90;;
8881;SDS011;4477;48.736;9.176;2023-05-10T14:04:01;1.90;;;0.70;;
8881;SDS011;4477;48.736;9.176;2023-05-10T14:06:30;2.53;;;0.90;;
8881;SDS011;4477;48.736;9.176;2023-05-10T14:08:57;1.43;;;0.80;;
8881;SDS011;4477;48.736;9.176;2023-05-10T14:11:24;2.03;;;0.70;;
8881;SDS011;4477;48.736;9.176;2023-05-10T14:13:52;1.33;;;0.70;;
8881;SDS011;4477;48.736;9.176;2023-05-10T14:16:19;1.13;;;0.70;;
8881;SDS011;4477;48.736;9.176;2023-05-10T14:18:46;2.00;;;0.70;;
8881;SDS011;4477;48.736;9.176;2023-05-10T14:21:14;1.37;;;0.60;;
8881;SDS011;4477;48.736;9.176;2023-05-10T14:23:42;2.30;;;0.90;;
8881;SDS011;4477;48.736;9.176;2023-05-10T14:26:09;2.23;;;0.90;;
8881;SDS011;4477;48.736;9.176;2023-05-10T14:28:37;2.97;;;1.00;;
8881;SDS011;4477;48.736;9.176;2023-05-10T14:31:04;2.67;;;0.90;;
8881;SDS011;4477;48.736;9.176;2023-05-10T14:33:31;1.83;;;0.80;;
8881;SDS011;4477;48.736;9.176;2023-05-10T14:35:58;1.00;;;0.60;;
8881;SDS011;4477;48.736;9.176;2023-05-10T14:38:28;2.10;;;0.83;;
8881;SDS011;4477;48.736;9.176;2023-05-10T14:40:56;0.93;;;0.70;;
8881;SDS011;4477;48.736;9.176;2023-05-10T14:43:23;4.73;;;0.90;;
8881;SDS011;4477;48.736;9.176;2023-05-10T14:45:52;2.03;;;0.83;;
8881;SDS011;4477;48.736;9.176;2023-05-10T14:48:19;2.70;;;0.80;;
8881;SDS011;4477;48.736;9.176;2023-05-10T14:50:47;1.83;;;0.90;;
8881;SDS011;4477;48.736;9.176;2023-05-10T14:53:14;1.83;;;0.80;;
8881;SDS011;4477;48.736;9.176;2023-05-10T14:55:42;2.40;;;0.90;;
8881;SDS011;4477;48.736;9.176;2023-05-10T14:58:11;4.53;;;1.07;;
8881;SDS011;4477;48.736;9.176;2023-05-10T15:00:38;1.70;;;0.77;;
8881;SDS011;4477;48.736;9.176;2023-05-10T15:03:05;0.67;;;0.60;;
8881;SDS011;4477;48.736;9.176;2023-05-10T15:05:32;2.37;;;0.70;;
8881;SDS011;4477;48.736;9.176;2023-05-10T15:07:59;2.63;;;0.80;;
8881;SDS011;4477;48.736;9.176;2023-05-10T15:10:26;3.83;;;0.77;;
8881;SDS011;4477;48.736;9.176;2023-05-10T15:12:53;1.03;;;0.70;;
8881;SDS011;4477;48.736;9.176;2023-05-10T15:15:22;1.67;;;0.63;;
8881;SDS011;4477;48.736;9.176;2023-05-10T15:17:49;2.23;;;0.80;;
8881;SDS011;4477;48.736;9.176;2023-05-10T15:20:17;1.17;;;0.60;;
8881;SDS011;4477;48.736;9.176;2023-05-10T15:22:44;4.07;;;0.83;;
8881;SDS011;4477;48.736;9.176;2023-05-10T15:25:11;2.87;;;0.90;;
8881;SDS011;4477;48.736;9.176;2023-05-10T15:27:38;1.63;;;0.87;;
8881;SDS011;4477;48.736;9.176;2023-05-10T15:30:06;1.90;;;0.77;;
8881;SDS011;4477;48.736;9.176;2023-05-10T15:32:34;1.80;;;0.80;;